createdAt,value
2018-11-26T00:00:16.754Z,6.26
2018-11-26T00:02:44.877Z,6.37
2018-11-26T00:05:12.909Z,6.34
2018-11-26T00:07:55.862Z,6.37
2018-11-26T00:10:29.490Z,6.24
2018-11-26T00:12:57.561Z,6.35
2018-11-26T00:15:25.617Z,6.43
2018-11-26T00:17:53.708Z,6.42
2018-11-26T00:20:21.747Z,6.38
2018-11-26T00:22:49.798Z,6.34
2018-11-26T00:25:17.789Z,6.39
2018-11-26T00:27:45.833Z,6.27
2018-11-26T00:30:13.867Z,6.36
2018-11-26T00:32:41.919Z,6.28
2018-11-26T00:35:09.931Z,6.43
2018-11-26T00:37:37.976Z,6.32
2018-11-26T00:40:07.397Z,6.41
2018-11-26T00:42:35.449Z,6.41
2018-11-26T00:45:03.486Z,6.38
2018-11-26T00:47:31.558Z,6.45
2018-11-26T00:49:59.648Z,6.46
2018-11-26T00:52:27.632Z,6.52
2018-11-26T00:54:55.650Z,6.52
2018-11-26T00:57:23.669Z,6.53
2018-11-26T00:59:51.684Z,6.53
2018-11-26T01:02:19.675Z,6.56
2018-11-26T01:04:47.718Z,6.35
2018-11-26T01:07:15.758Z,6.47
2018-11-26T01:09:43.827Z,6.40
2018-11-26T01:12:12.083Z,6.35
2018-11-26T01:14:40.061Z,6.44
2018-11-26T01:17:08.110Z,6.48
2018-11-26T01:19:36.179Z,6.52
2018-11-26T01:22:04.229Z,6.44
2018-11-26T01:24:32.237Z,6.37
2018-11-26T01:27:00.249Z,6.53
2018-11-26T01:29:28.237Z,6.69
2018-11-26T01:31:57.525Z,6.53
2018-11-26T01:34:25.506Z,6.47
2018-11-26T01:36:53.558Z,6.47
2018-11-26T01:39:21.591Z,6.47
2018-11-26T01:41:49.665Z,6.51
2018-11-26T01:44:17.696Z,6.50
2018-11-26T01:46:45.766Z,6.45
2018-11-26T01:49:13.769Z,6.55
2018-11-26T01:51:41.826Z,6.57
2018-11-26T01:54:09.840Z,6.47
2018-11-26T01:56:37.897Z,6.53
2018-11-26T01:59:05.978Z,6.60
2018-11-26T02:01:34.002Z,6.67
2018-11-26T02:04:02.061Z,6.64
2018-11-26T02:06:30.053Z,6.60
2018-11-26T02:08:58.099Z,6.61
2018-11-26T02:11:26.116Z,6.64
2018-11-26T02:13:54.162Z,6.61
2018-11-26T02:16:22.164Z,6.67
2018-11-26T02:18:50.206Z,6.70
2018-11-26T02:21:18.237Z,6.71
2018-11-26T02:23:47.373Z,6.61
2018-11-26T02:26:15.410Z,6.62
2018-11-26T02:28:43.448Z,6.59
2018-11-26T02:31:11.517Z,6.60
2018-11-26T02:33:39.573Z,6.58
2018-11-26T02:36:07.586Z,6.65
2018-11-26T02:38:35.666Z,6.61
2018-11-26T02:41:03.734Z,6.52
2018-11-26T02:43:31.786Z,6.61
2018-11-26T02:45:59.853Z,6.37
2018-11-26T02:48:27.848Z,6.61
2018-11-26T02:50:55.918Z,6.59
2018-11-26T02:53:23.983Z,6.54
2018-11-26T02:55:52.010Z,6.59
2018-11-26T02:58:20.068Z,6.76
2018-11-26T03:00:48.076Z,6.64
2018-11-26T03:03:16.137Z,6.71
2018-11-26T03:05:44.137Z,6.61
2018-11-26T03:08:12.166Z,6.65
2018-11-26T03:10:40.189Z,6.67
2018-11-26T03:13:08.203Z,6.71
2018-11-26T03:15:36.256Z,6.75
2018-11-26T03:18:04.271Z,6.71
2018-11-26T03:20:32.288Z,6.70
2018-11-26T03:23:00.355Z,6.77
2018-11-26T03:25:29.354Z,6.74
2018-11-26T03:27:57.511Z,6.62
2018-11-26T03:30:25.562Z,6.68
2018-11-26T03:32:53.622Z,6.50
2018-11-26T03:35:21.694Z,6.66
2018-11-26T03:37:49.695Z,6.72
2018-11-26T03:40:17.757Z,6.72
2018-11-26T03:42:45.767Z,6.77
2018-11-26T03:45:14.359Z,6.72
2018-11-26T03:47:42.361Z,6.69
2018-11-26T03:50:10.732Z,6.70
2018-11-26T03:52:38.817Z,6.73
2018-11-26T03:55:07.688Z,6.76
2018-11-26T03:57:35.738Z,6.74
2018-11-26T04:00:04.174Z,6.73
2018-11-26T04:02:32.160Z,6.59
2018-11-26T04:05:00.166Z,6.74
2018-11-26T04:07:28.211Z,6.73
2018-11-26T04:09:56.200Z,6.82
2018-11-26T04:12:24.237Z,6.80
2018-11-26T04:14:52.323Z,6.79
2018-11-26T04:17:20.334Z,6.84
2018-11-26T04:19:48.346Z,6.83
2018-11-26T04:22:16.371Z,6.83
2018-11-26T04:24:44.419Z,6.87
2018-11-26T04:27:12.491Z,6.89
2018-11-26T04:29:40.498Z,6.91
2018-11-26T04:32:08.533Z,6.90
2018-11-26T04:34:36.597Z,6.89
2018-11-26T04:37:04.978Z,6.75
2018-11-26T04:39:33.087Z,6.83
2018-11-26T04:42:01.102Z,6.83
2018-11-26T04:44:29.128Z,6.74
2018-11-26T04:46:57.118Z,6.78
2018-11-26T04:49:25.210Z,6.69
2018-11-26T04:51:53.236Z,6.85
2018-11-26T04:54:21.518Z,6.86
2018-11-26T04:56:49.531Z,6.85
2018-11-26T04:59:17.562Z,6.78
2018-11-26T05:01:45.575Z,6.80
2018-11-26T05:04:13.616Z,6.78
2018-11-26T05:06:42.263Z,6.82
2018-11-26T05:09:10.290Z,6.85
2018-11-26T05:11:38.413Z,6.70
2018-11-26T05:14:06.444Z,6.79
2018-11-26T05:16:34.456Z,6.79
2018-11-26T05:19:02.486Z,6.81
2018-11-26T05:21:30.541Z,6.77
2018-11-26T05:23:58.584Z,6.83
2018-11-26T05:26:26.645Z,6.76
2018-11-26T05:28:54.634Z,6.78
2018-11-26T05:31:22.669Z,6.86
2018-11-26T05:33:50.646Z,6.74
2018-11-26T05:36:18.702Z,6.83
2018-11-26T05:38:46.686Z,6.85
2018-11-26T05:41:14.686Z,6.74
2018-11-26T05:43:42.746Z,6.70
2018-11-26T05:46:10.792Z,6.68
2018-11-26T05:48:38.880Z,6.81
2018-11-26T05:51:07.172Z,6.83
2018-11-26T05:53:35.184Z,6.88
2018-11-26T05:56:03.254Z,6.90
2018-11-26T05:58:31.227Z,6.85
2018-11-26T06:00:59.238Z,6.95
2018-11-26T06:03:27.271Z,6.81
2018-11-26T06:05:55.271Z,6.89
2018-11-26T06:08:23.273Z,6.91
2018-11-26T06:10:51.274Z,6.91
2018-11-26T06:13:19.304Z,6.97
2018-11-26T06:15:48.413Z,6.91
2018-11-26T06:18:16.426Z,6.95
2018-11-26T06:20:44.413Z,6.94
2018-11-26T06:23:12.487Z,7.01
2018-11-26T06:25:40.469Z,6.94
2018-11-26T06:28:08.537Z,6.97
2018-11-26T06:30:36.621Z,6.98
2018-11-26T06:33:04.949Z,6.96
2018-11-26T06:35:33.905Z,7.00
2018-11-26T06:38:01.913Z,7.00
2018-11-26T06:40:29.954Z,6.99
2018-11-26T06:42:57.931Z,6.92
2018-11-26T06:45:25.942Z,6.83
2018-11-26T06:47:54.005Z,7.01
2018-11-26T06:50:22.150Z,7.05
2018-11-26T06:52:50.182Z,7.04
2018-11-26T06:55:18.765Z,6.96
2018-11-26T06:57:47.055Z,7.00
2018-11-26T07:00:15.942Z,6.99
2018-11-26T07:02:43.942Z,6.97
2018-11-26T07:05:13.621Z,6.96
2018-11-26T07:07:41.710Z,6.93
2018-11-26T07:10:10.240Z,6.98
2018-11-26T07:12:38.307Z,7.00
2018-11-26T07:15:09.074Z,6.94
2018-11-26T07:17:37.099Z,7.02
2018-11-26T07:20:07.931Z,6.94
2018-11-26T07:22:35.957Z,6.93
2018-11-26T07:25:04.500Z,6.93
2018-11-26T07:27:34.620Z,7.00
2018-11-26T07:30:02.698Z,6.97
2018-11-26T07:32:30.771Z,6.95
2018-11-26T07:34:58.846Z,6.97
2018-11-26T07:37:27.031Z,6.98
2018-11-26T07:39:59.010Z,7.00
2018-11-26T07:42:27.116Z,6.99
2018-11-26T07:44:55.174Z,6.84
2018-11-26T07:47:23.566Z,6.97
2018-11-26T07:49:54.284Z,7.02
2018-11-26T07:52:22.418Z,6.92
2018-11-26T07:54:50.478Z,6.88
2018-11-26T07:57:18.643Z,6.85
2018-11-26T07:59:46.793Z,6.93
2018-11-26T08:02:14.889Z,6.91
2018-11-26T08:04:43.022Z,7.05
2018-11-26T08:07:11.127Z,6.97
2018-11-26T08:09:39.259Z,6.80
2018-11-26T08:12:07.387Z,6.92
2018-11-26T08:14:36.134Z,6.98
2018-11-26T08:17:04.219Z,6.94
2018-11-26T08:19:32.333Z,6.99
2018-11-26T08:22:00.447Z,7.01
2018-11-26T08:24:28.648Z,6.93
2018-11-26T08:26:58.694Z,6.94
2018-11-26T08:29:26.831Z,7.01
2018-11-26T08:31:55.444Z,7.01
2018-11-26T08:34:23.592Z,7.01
2018-11-26T08:36:55.920Z,7.03
2018-11-26T08:39:28.239Z,7.00
2018-11-26T08:41:56.325Z,6.96
2018-11-26T08:44:29.919Z,7.00
2018-11-26T08:47:03.444Z,7.01
2018-11-26T08:49:33.505Z,7.05
2018-11-26T08:52:01.619Z,7.06
2018-11-26T08:54:29.707Z,7.21
2018-11-26T08:56:57.829Z,7.25
2018-11-26T08:59:25.895Z,7.28
2018-11-26T09:01:59.464Z,7.32
2018-11-26T09:04:31.525Z,7.28
2018-11-26T09:06:59.572Z,7.26
2018-11-26T09:09:32.859Z,7.30
2018-11-26T09:11:59.685Z,7.35
2018-11-26T09:14:27.746Z,7.33
2018-11-26T09:16:55.827Z,7.41
2018-11-26T09:19:24.755Z,7.40
2018-11-26T09:21:52.881Z,7.35
2018-11-26T09:24:20.979Z,7.34
2018-11-26T09:26:49.103Z,7.40
2018-11-26T09:29:17.150Z,7.39
2018-11-26T09:31:45.214Z,7.47
2018-11-26T09:34:13.338Z,7.43
2018-11-26T09:36:41.465Z,7.38
2018-11-26T09:39:10.347Z,7.53
2018-11-26T09:41:38.823Z,7.40
2018-11-26T09:44:07.018Z,7.49
2018-11-26T09:46:35.530Z,7.55
2018-11-26T09:49:03.682Z,7.55
2018-11-26T09:51:31.769Z,7.61
2018-11-26T09:53:59.840Z,7.61
2018-11-26T09:56:28.350Z,7.45
2018-11-26T09:58:56.378Z,7.53
2018-11-26T10:01:24.533Z,7.59
2018-11-26T10:03:53.594Z,7.67
2018-11-26T10:06:21.748Z,7.64
2018-11-26T10:08:49.841Z,7.71
2018-11-26T10:11:18.001Z,7.70
2018-11-26T10:13:50.091Z,7.74
2018-11-26T10:16:18.205Z,7.77
2018-11-26T10:18:46.549Z,7.79
2018-11-26T10:21:14.604Z,7.79
2018-11-26T10:23:42.633Z,7.81
2018-11-26T10:26:10.748Z,7.84
2018-11-26T10:28:38.857Z,7.85
2018-11-26T10:31:07.022Z,7.83
2018-11-26T10:33:35.083Z,7.90
2018-11-26T10:36:04.910Z,7.91
2018-11-26T10:38:32.968Z,7.84
2018-11-26T10:41:01.052Z,7.89
2018-11-26T10:43:29.165Z,7.96
2018-11-26T10:45:57.358Z,7.86
2018-11-26T10:48:25.406Z,7.94
2018-11-26T10:50:53.531Z,8.01
2018-11-26T10:53:21.654Z,8.01
2018-11-26T10:55:49.799Z,7.98
2018-11-26T10:58:18.719Z,7.85
2018-11-26T11:00:52.322Z,8.03
2018-11-26T11:03:20.391Z,7.98
2018-11-26T11:05:48.483Z,8.07
2018-11-26T11:08:17.488Z,8.01
2018-11-26T11:10:45.558Z,7.93
2018-11-26T11:13:13.702Z,7.96
2018-11-26T11:15:41.845Z,8.04
2018-11-26T11:18:09.969Z,8.02
2018-11-26T11:20:38.129Z,8.13
2018-11-26T11:23:06.982Z,8.15
2018-11-26T11:25:35.173Z,8.13
2018-11-26T11:28:03.212Z,8.15
2018-11-26T11:30:31.415Z,8.20
2018-11-26T11:35:27.871Z,8.23
2018-11-26T11:37:55.921Z,8.06
2018-11-26T11:40:25.444Z,8.15
2018-11-26T11:42:53.686Z,8.22
2018-11-26T11:45:22.445Z,8.23
2018-11-26T11:47:50.518Z,8.19
2018-11-26T11:50:19.484Z,8.11
2018-11-26T11:52:48.308Z,8.28
2018-11-26T11:55:21.651Z,8.31
2018-11-26T11:57:49.838Z,8.23
2018-11-26T12:00:25.275Z,8.30
2018-11-26T12:02:53.401Z,8.27
2018-11-26T12:05:21.456Z,8.29
2018-11-26T12:07:49.550Z,8.30
2018-11-26T12:10:17.653Z,8.32
2018-11-26T12:12:46.175Z,8.20
2018-11-26T12:15:15.210Z,8.04
2018-11-26T12:17:43.690Z,8.10
2018-11-26T12:20:13.432Z,8.21
2018-11-26T12:22:41.777Z,8.34
2018-11-26T12:25:11.309Z,8.30
2018-11-26T12:27:39.409Z,8.37
2018-11-26T12:30:09.341Z,8.35
2018-11-26T12:32:39.384Z,8.26
2018-11-26T12:35:07.500Z,8.37
2018-11-26T12:37:35.583Z,8.38
2018-11-26T12:40:03.678Z,8.44
2018-11-26T12:42:31.732Z,8.39
2018-11-26T12:44:59.819Z,8.38
2018-11-26T12:47:27.931Z,8.39
2018-11-26T12:49:56.053Z,8.42
2018-11-26T12:52:24.752Z,8.45
2018-11-26T12:54:57.942Z,8.37
2018-11-26T12:57:26.521Z,8.38
2018-11-26T12:59:54.623Z,8.42
2018-11-26T13:02:22.727Z,8.50
2018-11-26T13:04:50.819Z,8.33
2018-11-26T13:07:21.878Z,8.40
2018-11-26T13:09:50.895Z,8.36
2018-11-26T13:12:21.382Z,8.37
2018-11-26T13:14:49.449Z,8.39
2018-11-26T13:17:17.607Z,8.33
2018-11-26T13:19:46.196Z,8.32
2018-11-26T13:22:14.395Z,8.24
2018-11-26T13:24:42.495Z,8.28
2018-11-26T13:27:10.621Z,8.33
2018-11-26T13:29:38.767Z,8.34
2018-11-26T13:32:07.156Z,8.29
2018-11-26T13:34:35.602Z,8.31
2018-11-26T13:37:03.785Z,8.38
2018-11-26T13:39:32.137Z,8.39
2018-11-26T13:42:00.879Z,8.34
2018-11-26T13:44:29.183Z,8.25
2018-11-26T13:46:57.307Z,8.31
2018-11-26T13:49:26.416Z,8.15
2018-11-26T13:51:55.256Z,8.30
2018-11-26T13:54:27.132Z,8.32
2018-11-26T13:56:55.299Z,8.32
2018-11-26T13:59:24.079Z,8.22
2018-11-26T14:01:52.191Z,8.26
2018-11-26T14:04:21.593Z,8.18
2018-11-26T14:06:49.667Z,8.22
2018-11-26T14:13:17.365Z,8.21
2018-11-26T14:15:45.761Z,8.20
2018-11-26T14:18:13.861Z,8.27
2018-11-26T14:20:42.530Z,8.25
2018-11-26T14:23:10.665Z,8.31
2018-11-26T14:25:38.755Z,8.30
2018-11-26T14:28:06.937Z,8.18
2018-11-26T14:30:35.059Z,8.09
2018-11-26T14:33:03.453Z,8.16
2018-11-26T14:35:31.675Z,8.22
2018-11-26T14:38:01.579Z,8.22
2018-11-26T14:40:34.515Z,8.16
2018-11-26T14:43:02.856Z,8.20
2018-11-26T14:45:31.619Z,8.22
2018-11-26T14:47:59.974Z,7.95
2018-11-26T14:50:28.113Z,8.07
2018-11-26T14:52:56.277Z,8.14
2018-11-26T14:55:25.641Z,8.10
2018-11-26T14:57:53.823Z,8.10
2018-11-26T15:00:22.179Z,8.08
2018-11-26T15:02:56.042Z,8.13
2018-11-26T15:05:39.243Z,8.07
2018-11-26T15:08:14.064Z,8.03
2018-11-26T15:10:42.948Z,8.01
2018-11-26T15:13:11.025Z,8.02
2018-11-26T15:15:39.142Z,7.97
2018-11-26T15:18:08.286Z,8.01
2018-11-26T15:20:36.414Z,7.99
2018-11-26T15:23:04.655Z,8.00
2018-11-26T15:25:33.302Z,7.99
2018-11-26T15:28:02.644Z,7.96
2018-11-26T15:30:30.701Z,7.97
2018-11-26T15:33:01.621Z,7.95
2018-11-26T15:35:29.722Z,7.93
2018-11-26T15:37:57.777Z,7.83
2018-11-26T15:40:25.927Z,7.86
2018-11-26T15:42:53.924Z,7.83
2018-11-26T15:45:30.840Z,7.89
2018-11-26T15:47:59.535Z,7.68
2018-11-26T15:50:28.774Z,7.67
2018-11-26T15:52:57.747Z,7.78
2018-11-26T15:55:25.914Z,7.75
2018-11-26T15:57:54.047Z,7.70
2018-11-26T16:00:24.165Z,7.67
2018-11-26T16:02:52.384Z,7.66
2018-11-26T16:05:21.079Z,7.63
2018-11-26T16:07:49.437Z,7.62
2018-11-26T16:10:17.484Z,7.60
2018-11-26T16:12:47.091Z,7.58
2018-11-26T16:15:16.923Z,7.45
2018-11-26T16:17:45.340Z,7.45
2018-11-26T16:20:15.005Z,7.48
2018-11-26T16:22:43.880Z,7.39
2018-11-26T16:25:15.241Z,7.25
2018-11-26T16:27:43.793Z,7.10
2018-11-26T16:30:12.550Z,7.25
2018-11-26T16:32:40.678Z,7.17
2018-11-26T16:35:13.049Z,7.18
2018-11-26T16:37:41.138Z,7.20
2018-11-26T16:40:10.132Z,7.15
2018-11-26T16:42:38.198Z,7.05
2018-11-26T16:45:07.411Z,7.09
2018-11-26T16:47:37.402Z,7.15
2018-11-26T16:50:06.477Z,7.06
2018-11-26T16:52:35.035Z,6.97
2018-11-26T16:55:03.106Z,6.94
2018-11-26T16:57:31.198Z,7.00
2018-11-26T16:59:59.281Z,7.02
2018-11-26T17:02:27.405Z,6.93
2018-11-26T17:04:55.430Z,6.87
2018-11-26T17:07:24.668Z,6.72
2018-11-26T17:09:52.760Z,6.78
2018-11-26T17:12:21.943Z,6.85
2018-11-26T17:14:49.992Z,6.84
2018-11-26T17:17:18.118Z,6.81
2018-11-26T17:19:46.273Z,6.80
2018-11-26T17:22:14.715Z,6.81
2018-11-26T17:24:43.809Z,6.80
2018-11-26T17:29:45.174Z,6.73
2018-11-26T17:32:13.243Z,6.72
2018-11-26T17:34:41.520Z,6.77
2018-11-26T17:37:09.671Z,6.67
2018-11-26T17:39:40.611Z,6.73
2018-11-26T17:42:08.581Z,6.58
2018-11-26T17:44:36.729Z,6.67
2018-11-26T17:47:04.802Z,6.62
2018-11-26T17:49:32.846Z,6.56
2018-11-26T17:52:00.940Z,6.73
2018-11-26T17:54:28.951Z,6.53
2018-11-26T17:56:57.035Z,6.55
2018-11-26T17:59:25.142Z,6.49
2018-11-26T18:01:53.238Z,6.50
2018-11-26T18:04:21.291Z,6.54
2018-11-26T18:06:49.462Z,6.44
2018-11-26T18:09:22.652Z,6.47
2018-11-26T18:11:49.661Z,6.41
2018-11-26T18:14:17.700Z,6.41
2018-11-26T18:16:45.796Z,6.38
2018-11-26T18:19:13.896Z,6.42
2018-11-26T18:21:42.022Z,6.43
2018-11-26T18:24:10.008Z,6.45
2018-11-26T18:26:38.095Z,6.50
2018-11-26T18:29:06.417Z,6.44
2018-11-26T18:31:34.530Z,6.52
2018-11-26T18:34:03.616Z,6.42
2018-11-26T18:36:32.722Z,6.50
2018-11-26T18:39:00.805Z,6.38
2018-11-26T18:41:29.078Z,6.36
2018-11-26T18:43:57.173Z,6.31
2018-11-26T18:46:25.275Z,6.24
2018-11-26T18:48:53.343Z,6.34
2018-11-26T18:51:21.621Z,6.35
2018-11-26T18:53:49.818Z,6.34
2018-11-26T18:56:17.895Z,6.25
2018-11-26T18:58:45.949Z,6.11
2018-11-26T19:01:14.470Z,6.13
2018-11-26T19:03:42.634Z,6.16
2018-11-26T19:06:10.706Z,6.09
2018-11-26T19:08:38.821Z,6.02
2018-11-26T19:11:07.989Z,6.10
2018-11-26T19:13:41.259Z,6.10
2018-11-26T19:16:10.860Z,6.13
2018-11-26T19:18:38.955Z,6.06
2018-11-26T19:21:07.128Z,6.09
2018-11-26T19:23:35.401Z,6.12
2018-11-26T19:26:05.542Z,6.13
2018-11-26T19:28:33.599Z,6.08
2018-11-26T19:31:01.802Z,6.08
2018-11-26T19:33:30.454Z,6.13
2018-11-26T19:35:58.550Z,6.00
2018-11-26T19:38:27.329Z,6.04
2018-11-26T19:40:55.811Z,6.05
2018-11-26T19:43:24.201Z,6.05
2018-11-26T19:45:52.772Z,5.99
2018-11-26T19:48:20.827Z,6.07
2018-11-26T19:50:48.912Z,5.97
2018-11-26T19:53:16.978Z,5.97
2018-11-26T19:55:45.055Z,6.02
2018-11-26T19:58:13.429Z,6.07
2018-11-26T20:00:41.769Z,6.07
2018-11-26T20:03:10.740Z,6.06
2018-11-26T20:08:22.404Z,6.08
2018-11-26T20:10:50.523Z,6.03
2018-11-26T20:13:18.601Z,6.03
2018-11-26T20:15:46.716Z,6.00
2018-11-26T20:18:21.494Z,5.99
2018-11-26T20:20:49.606Z,6.08
2018-11-26T20:23:18.331Z,6.06
2018-11-26T20:25:46.513Z,6.05
2018-11-26T20:28:14.536Z,5.99
2018-11-26T20:30:42.664Z,5.75
2018-11-26T20:33:10.745Z,5.74
2018-11-26T20:35:38.867Z,5.92
2018-11-26T20:38:07.462Z,5.90
2018-11-26T20:40:35.554Z,6.01
2018-11-26T20:43:03.785Z,5.97
2018-11-26T20:45:32.522Z,5.98
2018-11-26T20:48:00.620Z,5.98
2018-11-26T20:50:29.001Z,6.03
2018-11-26T20:52:57.007Z,5.94
2018-11-26T20:55:25.541Z,5.98
2018-11-26T20:57:54.347Z,5.89
2018-11-26T21:00:23.403Z,5.85
2018-11-26T21:02:52.365Z,5.93
2018-11-26T21:05:20.604Z,5.91
2018-11-26T21:07:48.890Z,5.95
2018-11-26T21:10:17.292Z,5.93
2018-11-26T21:12:45.598Z,5.92
2018-11-26T21:15:14.290Z,5.85
2018-11-26T21:17:43.117Z,5.89
2018-11-26T21:20:15.279Z,5.88
2018-11-26T21:22:43.472Z,5.92
2018-11-26T21:25:13.529Z,5.97
2018-11-26T21:27:41.739Z,5.67
2018-11-26T21:30:12.132Z,5.80
2018-11-26T21:32:40.540Z,5.96
2018-11-26T21:35:09.660Z,5.96
2018-11-26T21:37:38.012Z,5.97
2018-11-26T21:40:07.438Z,5.90
2018-11-26T21:42:35.710Z,5.90
2018-11-26T21:45:04.044Z,6.00
2018-11-26T21:47:32.341Z,5.99
2018-11-26T21:50:00.634Z,5.93
2018-11-26T21:52:29.757Z,5.97
2018-11-26T21:54:57.991Z,5.95
2018-11-26T21:57:26.200Z,5.94
2018-11-26T21:59:54.432Z,5.93
2018-11-26T22:02:22.587Z,5.96
2018-11-26T22:04:52.732Z,5.98
2018-11-26T22:07:20.969Z,5.95
2018-11-26T22:09:49.250Z,5.96
2018-11-26T22:12:17.495Z,5.98
2018-11-26T22:14:45.665Z,6.00
2018-11-26T22:17:13.873Z,5.98
2018-11-26T22:19:42.068Z,5.96
2018-11-26T22:22:10.312Z,5.96
2018-11-26T22:24:38.523Z,5.95
2018-11-26T22:27:06.758Z,6.03
2018-11-26T22:29:35.154Z,5.99
2018-11-26T22:32:03.374Z,6.03
2018-11-26T22:34:31.631Z,6.00
2018-11-26T22:37:01.083Z,6.01
2018-11-26T22:39:29.345Z,5.99
2018-11-26T22:41:57.394Z,6.03
2018-11-26T22:44:25.422Z,6.03
2018-11-26T22:46:53.433Z,5.99
2018-11-26T22:49:21.520Z,5.91
2018-11-26T22:51:51.579Z,5.95
2018-11-26T22:54:17.652Z,6.00
2018-11-26T22:56:45.662Z,6.00
2018-11-26T22:59:14.264Z,5.99
2018-11-26T23:01:42.348Z,6.06
2018-11-26T23:04:10.331Z,6.02
2018-11-26T23:06:38.392Z,6.00
2018-11-26T23:09:07.622Z,6.04
2018-11-26T23:11:35.625Z,5.89
2018-11-26T23:14:03.650Z,5.98
2018-11-26T23:16:31.691Z,5.99
2018-11-26T23:18:59.657Z,5.82
2018-11-26T23:21:27.670Z,5.87
2018-11-26T23:23:55.679Z,5.94
2018-11-26T23:26:23.821Z,5.90
2018-11-26T23:28:51.831Z,5.83
2018-11-26T23:31:19.948Z,5.65
2018-11-26T23:33:48.023Z,5.78
2018-11-26T23:36:16.113Z,5.87
2018-11-26T23:38:44.164Z,5.89
2018-11-26T23:41:12.260Z,5.90
2018-11-26T23:43:40.276Z,5.96
2018-11-26T23:46:08.296Z,5.96
2018-11-26T23:48:36.296Z,5.94
2018-11-26T23:51:04.411Z,5.92
2018-11-26T23:53:32.455Z,5.92
2018-11-26T23:56:00.488Z,5.94
2018-11-26T23:58:28.496Z,5.90
